sensor_id;sensor_type;location;lat;lon;timestamp;pressure;altitude;pressure_sealevel;temperature;humidity
71857;BME280;63344;46.980;28.882;2023-08-31T00:00:17;99997.84;;;19.52;75.66
71857;BME280;63344;46.980;28.882;2023-08-31T00:03:10;99997.97;;;19.50;75.88
71857;BME280;63344;46.980;28.882;2023-08-31T00:06:08;99998.25;;;19.47;75.91
71857;BME280;63344;46.980;28.882;2023-08-31T00:08:49;100005.59;;;19.45;76.14
71857;BME280;63344;46.980;28.882;2023-08-31T00:12:01;100006.69;;;19.43;76.50
71857;BME280;63344;46.980;28.882;2023-08-31T00:14:53;100003.44;;;19.39;77.04
71857;BME280;63344;46.980;28.882;2023-08-31T00:17:32;99996.13;;;19.30;76.66
71857;BME280;63344;46.980;28.882;2023-08-31T00:20:26;100003.97;;;19.33;76.86
71857;BME280;63344;46.980;28.882;2023-08-31T00:23:08;99995.13;;;19.31;77.21
71857;BME280;63344;46.980;28.882;2023-08-31T00:25:51;99991.00;;;19.27;77.30
71857;BME280;63344;46.980;28.882;2023-08-31T00:28:29;99998.72;;;19.32;77.38
71857;BME280;63344;46.980;28.882;2023-08-31T00:31:20;100013.00;;;19.32;77.60
71857;BME280;63344;46.980;28.882;2023-08-31T00:34:15;99996.84;;;19.32;77.87
71857;BME280;63344;46.980;28.882;2023-08-31T00:37:13;99997.69;;;19.33;77.92
71857;BME280;63344;46.980;28.882;2023-08-31T00:39:56;100000.78;;;19.28;77.97
71857;BME280;63344;46.980;28.882;2023-08-31T00:42:49;100010.44;;;19.30;77.42
71857;BME280;63344;46.980;28.882;2023-08-31T00:45:26;100010.72;;;19.27;77.94
71857;BME280;63344;46.980;28.882;2023-08-31T00:48:23;99995.09;;;19.21;77.82
71857;BME280;63344;46.980;28.882;2023-08-31T00:51:09;100004.34;;;19.28;78.11
71857;BME280;63344;46.980;28.882;2023-08-31T00:53:55;99986.72;;;19.24;78.00
71857;BME280;63344;46.980;28.882;2023-08-31T00:56:25;99995.13;;;19.31;78.31
71857;BME280;63344;46.980;28.882;2023-08-31T00:59:01;99987.06;;;19.31;78.41
71857;BME280;63344;46.980;28.882;2023-08-31T01:01:54;99995.13;;;19.31;78.61
71857;BME280;63344;46.980;28.882;2023-08-31T01:11:20;99993.69;;;19.27;79.03
71857;BME280;63344;46.980;28.882;2023-08-31T01:14:27;99988.47;;;19.25;78.81
71857;BME280;63344;46.980;28.882;2023-08-31T01:17:12;99992.97;;;19.25;78.92
71857;BME280;63344;46.980;28.882;2023-08-31T01:19:51;99982.91;;;19.27;79.19
71857;BME280;63344;46.980;28.882;2023-08-31T01:23:01;99980.09;;;19.28;79.57
71857;BME280;63344;46.980;28.882;2023-08-31T01:25:31;99984.66;;;19.28;79.28
71857;BME280;63344;46.980;28.882;2023-08-31T01:28:04;99974.28;;;19.23;79.00
71857;BME280;63344;46.980;28.882;2023-08-31T01:30:51;99988.31;;;19.27;79.26
71857;BME280;63344;46.980;28.882;2023-08-31T01:33:28;99987.59;;;19.25;79.35
71857;BME280;63344;46.980;28.882;2023-08-31T01:36:28;99994.69;;;19.26;79.01
71857;BME280;63344;46.980;28.882;2023-08-31T01:39:26;99990.88;;;19.28;79.11
71857;BME280;63344;46.980;28.882;2023-08-31T01:41:55;99996.00;;;19.32;79.35
71857;BME280;63344;46.980;28.882;2023-08-31T01:44:30;99995.13;;;19.31;79.06
71857;BME280;63344;46.980;28.882;2023-08-31T01:47:08;99993.31;;;19.32;79.49
71857;BME280;63344;46.980;28.882;2023-08-31T01:49:42;99994.63;;;19.37;79.06
71857;BME280;63344;46.980;28.882;2023-08-31T01:52:15;100000.59;;;19.41;79.08
71857;BME280;63344;46.980;28.882;2023-08-31T01:54:52;99994.88;;;19.34;79.04
71857;BME280;63344;46.980;28.882;2023-08-31T01:57:25;99990.22;;;19.36;79.25
71857;BME280;63344;46.980;28.882;2023-08-31T01:59:57;99992.78;;;19.38;79.28
71857;BME280;63344;46.980;28.882;2023-08-31T02:02:40;99978.72;;;19.34;78.94
71857;BME280;63344;46.980;28.882;2023-08-31T02:05:09;99985.16;;;19.43;79.44
71857;BME280;63344;46.980;28.882;2023-08-31T02:08:02;99986.69;;;19.36;79.04
71857;BME280;63344;46.980;28.882;2023-08-31T02:10:56;99992.66;;;19.39;79.30
71857;BME280;63344;46.980;28.882;2023-08-31T02:13:29;99982.41;;;19.33;79.25
71857;BME280;63344;46.980;28.882;2023-08-31T02:16:11;99984.00;;;19.36;79.45
71857;BME280;63344;46.980;28.882;2023-08-31T02:18:40;99984.13;;;19.34;79.34
71857;BME280;63344;46.980;28.882;2023-08-31T02:21:23;99994.63;;;19.37;79.22
71857;BME280;63344;46.980;28.882;2023-08-31T02:23:57;99991.94;;;19.37;79.62
71857;BME280;63344;46.980;28.882;2023-08-31T02:26:34;99990.94;;;19.38;79.64
71857;BME280;63344;46.980;28.882;2023-08-31T02:29:16;99983.88;;;19.37;79.98
71857;BME280;63344;46.980;28.882;2023-08-31T02:31:58;99978.47;;;19.37;79.87
71857;BME280;63344;46.980;28.882;2023-08-31T02:34:30;99972.88;;;19.29;80.26
71857;BME280;63344;46.980;28.882;2023-08-31T02:37:13;99969.34;;;19.28;79.87
71857;BME280;63344;46.980;28.882;2023-08-31T02:39:46;99976.16;;;19.33;79.99
71857;BME280;63344;46.980;28.882;2023-08-31T02:42:18;99966.75;;;19.27;80.64
71857;BME280;63344;46.980;28.882;2023-08-31T02:44:57;99967.63;;;19.27;81.29
71857;BME280;63344;46.980;28.882;2023-08-31T02:47:40;99961.91;;;19.21;81.65
71857;BME280;63344;46.980;28.882;2023-08-31T02:50:14;99967.28;;;19.21;81.09
71857;BME280;63344;46.980;28.882;2023-08-31T02:52:51;99970.13;;;19.19;80.85
71857;BME280;63344;46.980;28.882;2023-08-31T02:55:28;99960.34;;;19.18;81.53
71857;BME280;63344;46.980;28.882;2023-08-31T02:58:08;99954.16;;;19.06;82.11
71857;BME280;63344;46.980;28.882;2023-08-31T03:01:12;99968.81;;;19.14;81.86
71857;BME280;63344;46.980;28.882;2023-08-31T03:03:51;99944.84;;;19.10;82.27
71857;BME280;63344;46.980;28.882;2023-08-31T03:06:34;99946.81;;;19.08;82.57
71857;BME280;63344;46.980;28.882;2023-08-31T03:09:04;99951.66;;;19.15;82.34
71857;BME280;63344;46.980;28.882;2023-08-31T03:11:42;99948.97;;;19.15;82.19
71857;BME280;63344;46.980;28.882;2023-08-31T03:14:22;99955.06;;;19.17;82.13
71857;BME280;63344;46.980;28.882;2023-08-31T03:17:13;99937.22;;;19.16;82.43
71857;BME280;63344;46.980;28.882;2023-08-31T03:19:52;99939.22;;;19.14;82.61
71857;BME280;63344;46.980;28.882;2023-08-31T03:22:20;99928.09;;;19.07;82.30
71857;BME280;63344;46.980;28.882;2023-08-31T03:24:55;99936.38;;;19.15;82.26
71857;BME280;63344;46.980;28.882;2023-08-31T03:27:37;99941.50;;;19.18;82.55
71857;BME280;63344;46.980;28.882;2023-08-31T03:30:32;99933.16;;;19.21;81.91
71857;BME280;63344;46.980;28.882;2023-08-31T03:33:29;99941.97;;;19.23;82.48
71857;BME280;63344;46.980;28.882;2023-08-31T03:36:34;99938.81;;;19.18;82.39
71857;BME280;63344;46.980;28.882;2023-08-31T03:42:45;99949.09;;;19.13;82.78
71857;BME280;63344;46.980;28.882;2023-08-31T03:45:19;99945.44;;;19.14;82.24
71857;BME280;63344;46.980;28.882;2023-08-31T03:48:24;99963.09;;;19.28;82.15
71857;BME280;63344;46.980;28.882;2023-08-31T03:51:01;99971.78;;;19.32;82.36
71857;BME280;63344;46.980;28.882;2023-08-31T03:53:37;99967.47;;;19.29;82.25
71857;BME280;63344;46.980;28.882;2023-08-31T03:56:29;99968.47;;;19.28;81.88
71857;BME280;63344;46.980;28.882;2023-08-31T03:59:12;99967.75;;;19.26;82.01
71857;BME280;63344;46.980;28.882;2023-08-31T04:13:00;99987.84;;;19.43;82.10
71857;BME280;63344;46.980;28.882;2023-08-31T04:16:10;99986.22;;;19.52;81.82
71857;BME280;63344;46.980;28.882;2023-08-31T04:22:59;99965.16;;;19.66;81.38
71857;BME280;63344;46.980;28.882;2023-08-31T04:26:13;99981.88;;;19.81;81.07
71857;BME280;63344;46.980;28.882;2023-08-31T04:29:21;99966.00;;;19.88;81.02
71857;BME280;63344;46.980;28.882;2023-08-31T04:32:23;99967.47;;;20.02;80.75
71857;BME280;63344;46.980;28.882;2023-08-31T04:39:38;99968.81;;;20.17;79.01
71857;BME280;63344;46.980;28.882;2023-08-31T04:42:26;99973.47;;;20.15;78.99
71857;BME280;63344;46.980;28.882;2023-08-31T05:36:28;100030.44;;;21.40;74.49
71857;BME280;63344;46.980;28.882;2023-08-31T05:39:31;100024.47;;;21.46;74.21
71857;BME280;63344;46.980;28.882;2023-08-31T05:42:34;100035.97;;;21.68;73.33
71857;BME280;63344;46.980;28.882;2023-08-31T05:46:01;100029.56;;;21.79;73.21
71857;BME280;63344;46.980;28.882;2023-08-31T05:49:03;100030.91;;;21.93;72.82
71857;BME280;63344;46.980;28.882;2023-08-31T05:52:05;100031.44;;;22.06;72.66
71857;BME280;63344;46.980;28.882;2023-08-31T06:03:21;100043.06;;;22.54;70.52
71857;BME280;63344;46.980;28.882;2023-08-31T06:13:50;100045.53;;;22.75;69.81
71857;BME280;63344;46.980;28.882;2023-08-31T06:16:58;100058.06;;;22.94;70.01
71857;BME280;63344;46.980;28.882;2023-08-31T06:20:32;100058.09;;;23.12;69.79
71857;BME280;63344;46.980;28.882;2023-08-31T06:23:26;100036.81;;;23.17;69.49
71857;BME280;63344;46.980;28.882;2023-08-31T06:30:14;100062.41;;;23.40;68.43
71857;BME280;63344;46.980;28.882;2023-08-31T06:41:34;100077.13;;;24.00;65.61
71857;BME280;63344;46.980;28.882;2023-08-31T07:05:28;100094.88;;;24.97;61.48
71857;BME280;63344;46.980;28.882;2023-08-31T07:08:50;100092.88;;;25.08;61.08
71857;BME280;63344;46.980;28.882;2023-08-31T07:11:45;100099.19;;;25.16;60.93
71857;BME280;63344;46.980;28.882;2023-08-31T07:18:31;100112.84;;;25.49;60.15
71857;BME280;63344;46.980;28.882;2023-08-31T07:21:47;100102.31;;;25.62;59.84
71857;BME280;63344;46.980;28.882;2023-08-31T07:28:44;100114.53;;;25.83;58.84
71857;BME280;63344;46.980;28.882;2023-08-31T07:31:51;100117.44;;;25.81;58.36
71857;BME280;63344;46.980;28.882;2023-08-31T07:46:00;100110.97;;;25.82;58.14
71857;BME280;63344;46.980;28.882;2023-08-31T07:48:48;100113.50;;;25.76;58.23
71857;BME280;63344;46.980;28.882;2023-08-31T07:51:30;100121.19;;;25.80;58.48
71857;BME280;63344;46.980;28.882;2023-08-31T07:54:26;100119.00;;;25.92;58.82
71857;BME280;63344;46.980;28.882;2023-08-31T08:01:14;100118.38;;;26.46;57.39
71857;BME280;63344;46.980;28.882;2023-08-31T08:04:19;100116.53;;;26.78;55.81
71857;BME280;63344;46.980;28.882;2023-08-31T08:06:55;100102.66;;;26.96;56.01
71857;BME280;63344;46.980;28.882;2023-08-31T08:10:38;100115.34;;;27.12;54.66
71857;BME280;63344;46.980;28.882;2023-08-31T08:21:51;100116.19;;;30.23;49.34
71857;BME280;63344;46.980;28.882;2023-08-31T08:24:44;100118.28;;;29.93;47.93
71857;BME280;63344;46.980;28.882;2023-08-31T08:28:04;100113.41;;;29.88;48.66
71857;BME280;63344;46.980;28.882;2023-08-31T08:31:07;100118.09;;;30.23;47.41
71857;BME280;63344;46.980;28.882;2023-08-31T08:34:20;100120.78;;;30.86;45.01
71857;BME280;63344;46.980;28.882;2023-08-31T08:37:25;100133.66;;;31.47;43.81
71857;BME280;63344;46.980;28.882;2023-08-31T08:47:00;100123.59;;;33.95;41.33
71857;BME280;63344;46.980;28.882;2023-08-31T08:49:48;100129.97;;;35.13;39.98
71857;BME280;63344;46.980;28.882;2023-08-31T08:52:57;100131.19;;;36.13;36.06
71857;BME280;63344;46.980;28.882;2023-08-31T08:55:38;100132.09;;;35.10;34.59
71857;BME280;63344;46.980;28.882;2023-08-31T08:58:41;100127.00;;;34.40;35.73
71857;BME280;63344;46.980;28.882;2023-08-31T09:01:18;100124.00;;;33.98;36.28
71857;BME280;63344;46.980;28.882;2023-08-31T09:04:19;100128.66;;;33.98;36.63
71857;BME280;63344;46.980;28.882;2023-08-31T09:15:35;100132.22;;;37.35;31.78
71857;BME280;63344;46.980;28.882;2023-08-31T09:19:21;100128.03;;;38.34;29.09
71857;BME280;63344;46.980;28.882;2023-08-31T09:22:19;100125.00;;;38.35;27.32
71857;BME280;63344;46.980;28.882;2023-08-31T09:33:37;100125.22;;;34.02;32.50
71857;BME280;63344;46.980;28.882;2023-08-31T09:37:09;100131.66;;;32.87;34.51
71857;BME280;63344;46.980;28.882;2023-08-31T09:57:51;100123.44;;;30.31;41.20
71857;BME280;63344;46.980;28.882;2023-08-31T10:12:13;100134.28;;;31.35;41.11
71857;BME280;63344;46.980;28.882;2023-08-31T10:14:52;100139.47;;;31.17;40.93
71857;BME280;63344;46.980;28.882;2023-08-31T10:22:12;100135.16;;;33.08;38.64
71857;BME280;63344;46.980;28.882;2023-08-31T10:25:59;100124.44;;;33.95;36.56
71857;BME280;63344;46.980;28.882;2023-08-31T10:28:48;100126.00;;;33.59;35.17
71857;BME280;63344;46.980;28.882;2023-08-31T10:31:48;100120.56;;;32.56;36.70
71857;BME280;63344;46.980;28.882;2023-08-31T11:30:10;100085.34;;;30.43;40.13
71857;BME280;63344;46.980;28.882;2023-08-31T11:33:23;100090.94;;;30.69;40.39
71857;BME280;63344;46.980;28.882;2023-08-31T11:36:18;100101.06;;;31.04;40.63
71857;BME280;63344;46.980;28.882;2023-08-31T11:39:00;100101.25;;;31.09;39.91
71857;BME280;63344;46.980;28.882;2023-08-31T12:13:35;100094.75;;;30.68;38.73
71857;BME280;63344;46.980;28.882;2023-08-31T12:16:44;100090.09;;;30.62;39.02
71857;BME280;63344;46.980;28.882;2023-08-31T12:32:42;100088.75;;;30.51;39.52
71857;BME280;63344;46.980;28.882;2023-08-31T12:35:25;100086.25;;;30.50;39.31
71857;BME280;63344;46.980;28.882;2023-08-31T12:38:44;100080.06;;;30.41;40.01
71857;BME280;63344;46.980;28.882;2023-08-31T12:46:29;100087.00;;;30.37;38.99
71857;BME280;63344;46.980;28.882;2023-08-31T12:49:23;100083.69;;;30.48;39.13
71857;BME280;63344;46.980;28.882;2023-08-31T13:04:10;100084.44;;;30.77;37.80
71857;BME280;63344;46.980;28.882;2023-08-31T13:07:07;100082.88;;;30.96;37.93
71857;BME280;63344;46.980;28.882;2023-08-31T13:14:39;100076.38;;;30.62;37.79
71857;BME280;63344;46.980;28.882;2023-08-31T13:30:19;100069.00;;;30.63;38.47
71857;BME280;63344;46.980;28.882;2023-08-31T13:38:20;100060.25;;;30.39;36.84
71857;BME280;63344;46.980;28.882;2023-08-31T15:07:40;100033.06;;;29.74;37.05
71857;BME280;63344;46.980;28.882;2023-08-31T15:38:03;100042.09;;;28.89;37.39
71857;BME280;63344;46.980;28.882;2023-08-31T15:52:56;100072.69;;;28.48;38.27
71857;BME280;63344;46.980;28.882;2023-08-31T15:56:28;100074.22;;;28.35;38.51
71857;BME280;63344;46.980;28.882;2023-08-31T16:38:17;100117.66;;;27.23;42.26
71857;BME280;63344;46.980;28.882;2023-08-31T16:49:48;100137.56;;;27.00;43.26
71857;BME280;63344;46.980;28.882;2023-08-31T16:53:09;100140.50;;;26.91;43.26
71857;BME280;63344;46.980;28.882;2023-08-31T16:56:30;100145.97;;;26.91;43.32
71857;BME280;63344;46.980;28.882;2023-08-31T16:59:55;100153.81;;;26.86;43.62
71857;BME280;63344;46.980;28.882;2023-08-31T17:03:14;100158.28;;;26.78;43.81
71857;BME280;63344;46.980;28.882;2023-08-31T17:06:04;100157.28;;;26.71;43.69
71857;BME280;63344;46.980;28.882;2023-08-31T17:09:36;100168.72;;;26.67;43.92
71857;BME280;63344;46.980;28.882;2023-08-31T17:12:46;100163.78;;;26.62;44.51
71857;BME280;63344;46.980;28.882;2023-08-31T17:15:59;100158.00;;;26.57;44.41
71857;BME280;63344;46.980;28.882;2023-08-31T17:19:02;100159.38;;;26.53;44.61
71857;BME280;63344;46.980;28.882;2023-08-31T17:21:59;100162.97;;;26.45;45.20
71857;BME280;63344;46.980;28.882;2023-08-31T17:25:17;100160.09;;;26.38;44.93
71857;BME280;63344;46.980;28.882;2023-08-31T17:28:07;100166.53;;;26.37;44.99
71857;BME280;63344;46.980;28.882;2023-08-31T17:38:28;100188.22;;;26.14;44.30
71857;BME280;63344;46.980;28.882;2023-08-31T17:41:16;100189.06;;;26.15;44.05
71857;BME280;63344;46.980;28.882;2023-08-31T17:44:01;100200.25;;;26.20;44.12
71857;BME280;63344;46.980;28.882;2023-08-31T17:47:05;100195.00;;;26.18;44.14
71857;BME280;63344;46.980;28.882;2023-08-31T17:50:05;100198.06;;;26.15;43.91
71857;BME280;63344;46.980;28.882;2023-08-31T17:52:46;100199.44;;;26.11;44.05
71857;BME280;63344;46.980;28.882;2023-08-31T17:56:05;100209.97;;;26.06;44.23
71857;BME280;63344;46.980;28.882;2023-08-31T17:59:28;100210.50;;;26.01;43.96
71857;BME280;63344;46.980;28.882;2023-08-31T18:06:27;100206.94;;;25.93;44.41
71857;BME280;63344;46.980;28.882;2023-08-31T18:09:14;100199.97;;;25.90;44.57
71857;BME280;63344;46.980;28.882;2023-08-31T18:13:11;100203.81;;;25.88;44.61
71857;BME280;63344;46.980;28.882;2023-08-31T18:16:44;100202.47;;;25.83;44.83
71857;BME280;63344;46.980;28.882;2023-08-31T18:19:38;100199.72;;;25.75;44.77
71857;BME280;63344;46.980;28.882;2023-08-31T18:22:42;100200.56;;;25.76;44.87
71857;BME280;63344;46.980;28.882;2023-08-31T18:25:53;100204.16;;;25.76;45.23
71857;BME280;63344;46.980;28.882;2023-08-31T18:28:41;100203.66;;;25.73;45.02
71857;BME280;63344;46.980;28.882;2023-08-31T18:39:06;100212.63;;;25.57;45.53
71857;BME280;63344;46.980;28.882;2023-08-31T18:41:56;100227.06;;;25.57;45.64
71857;BME280;63344;46.980;28.882;2023-08-31T18:49:02;100206.47;;;25.38;46.12
71857;BME280;63344;46.980;28.882;2023-08-31T18:51:56;100219.03;;;25.39;46.33
71857;BME280;63344;46.980;28.882;2023-08-31T18:55:23;100217.34;;;25.38;46.37
71857;BME280;63344;46.980;28.882;2023-08-31T19:20:34;100257.63;;;25.00;48.18
71857;BME280;63344;46.980;28.882;2023-08-31T19:23:40;100271.66;;;24.96;48.48
71857;BME280;63344;46.980;28.882;2023-08-31T19:42:15;100267.97;;;24.71;49.89
71857;BME280;63344;46.980;28.882;2023-08-31T19:45:21;100259.78;;;24.62;50.14
71857;BME280;63344;46.980;28.882;2023-08-31T19:48:30;100263.97;;;24.57;50.32
71857;BME280;63344;46.980;28.882;2023-08-31T19:51:30;100275.38;;;24.60;50.57
71857;BME280;63344;46.980;28.882;2023-08-31T19:54:41;100280.81;;;24.60;50.60
71857;BME280;63344;46.980;28.882;2023-08-31T19:57:36;100277.00;;;24.53;50.71
71857;BME280;63344;46.980;28.882;2023-08-31T20:00:41;100286.34;;;24.51;51.16
71857;BME280;63344;46.980;28.882;2023-08-31T20:03:20;100291.59;;;24.52;51.20
71857;BME280;63344;46.980;28.882;2023-08-31T20:06:32;100281.66;;;24.43;51.14
71857;BME280;63344;46.980;28.882;2023-08-31T20:12:54;100292.81;;;24.40;51.33
71857;BME280;63344;46.980;28.882;2023-08-31T20:16:00;100301.50;;;24.43;51.51
71857;BME280;63344;46.980;28.882;2023-08-31T20:19:02;100314.38;;;24.41;51.67
71857;BME280;63344;46.980;28.882;2023-08-31T20:22:04;100311.63;;;24.33;51.63
71857;BME280;63344;46.980;28.882;2023-08-31T20:24:42;100319.59;;;24.35;51.65
71857;BME280;63344;46.980;28.882;2023-08-31T20:27:48;100322.69;;;24.40;51.63
71857;BME280;63344;46.980;28.882;2023-08-31T20:30:55;100332.41;;;24.42;51.40
71857;BME280;63344;46.980;28.882;2023-08-31T20:34:12;100334.44;;;24.40;51.74
71857;BME280;63344;46.980;28.882;2023-08-31T20:37:23;100337.72;;;24.34;51.52
71857;BME280;63344;46.980;28.882;2023-08-31T20:40:59;100344.75;;;24.37;51.92
71857;BME280;63344;46.980;28.882;2023-08-31T20:44:01;100343.84;;;24.36;52.04
71857;BME280;63344;46.980;28.882;2023-08-31T20:46:46;100339.75;;;24.32;52.20
71857;BME280;63344;46.980;28.882;2023-08-31T20:49:26;100342.78;;;24.29;52.39
71857;BME280;63344;46.980;28.882;2023-08-31T20:52:02;100335.44;;;24.21;52.68
71857;BME280;63344;46.980;28.882;2023-08-31T20:55:00;100348.59;;;24.16;52.70
71857;BME280;63344;46.980;28.882;2023-08-31T20:57:44;100364.72;;;24.18;52.98
71857;BME280;63344;46.980;28.882;2023-08-31T21:00:28;100351.22;;;24.08;53.07
71857;BME280;63344;46.980;28.882;2023-08-31T21:03:11;100357.69;;;24.07;53.23
71857;BME280;63344;46.980;28.882;2023-08-31T21:06:15;100357.41;;;24.00;53.25
71857;BME280;63344;46.980;28.882;2023-08-31T21:09:14;100353.47;;;23.95;53.58
71857;BME280;63344;46.980;28.882;2023-08-31T21:11:54;100352.94;;;23.91;53.63
71857;BME280;63344;46.980;28.882;2023-08-31T21:15:01;100347.69;;;23.80;53.85
71857;BME280;63344;46.980;28.882;2023-08-31T21:17:53;100347.84;;;23.78;53.83
71857;BME280;63344;46.980;28.882;2023-08-31T21:20:38;100353.72;;;23.74;54.09
71857;BME280;63344;46.980;28.882;2023-08-31T21:23:56;100352.78;;;23.65;54.07
71857;BME280;63344;46.980;28.882;2023-08-31T21:26:42;100352.66;;;23.57;54.08
71857;BME280;63344;46.980;28.882;2023-08-31T21:29:25;100346.38;;;23.56;54.35
71857;BME280;63344;46.980;28.882;2023-08-31T21:32:12;100357.38;;;23.55;54.36
71857;BME280;63344;46.980;28.882;2023-08-31T21:35:11;100352.25;;;23.52;54.21
71857;BME280;63344;46.980;28.882;2023-08-31T21:38:10;100360.53;;;23.50;54.39
71857;BME280;63344;46.980;28.882;2023-08-31T21:41:19;100361.84;;;23.46;54.13
71857;BME280;63344;46.980;28.882;2023-08-31T21:44:18;100365.56;;;23.45;54.52
71857;BME280;63344;46.980;28.882;2023-08-31T21:46:50;100369.72;;;23.39;54.45
71857;BME280;63344;46.980;28.882;2023-08-31T21:49:39;100372.31;;;23.31;55.01
71857;BME280;63344;46.980;28.882;2023-08-31T21:52:55;100371.66;;;23.19;55.74
71857;BME280;63344;46.980;28.882;2023-08-31T21:55:36;100372.25;;;23.03;56.33
71857;BME280;63344;46.980;28.882;2023-08-31T21:58:19;100369.53;;;22.94;56.95
71857;BME280;63344;46.980;28.882;2023-08-31T22:01:27;100386.81;;;22.83;57.76
71857;BME280;63344;46.980;28.882;2023-08-31T22:04:12;100379.84;;;22.71;58.33
71857;BME280;63344;46.980;28.882;2023-08-31T22:06:46;100380.97;;;22.58;58.00
71857;BME280;63344;46.980;28.882;2023-08-31T22:09:27;100369.88;;;22.42;58.38
71857;BME280;63344;46.980;28.882;2023-08-31T22:12:47;100372.88;;;22.39;58.50
71857;BME280;63344;46.980;28.882;2023-08-31T22:15:46;100371.72;;;22.32;58.44
71857;BME280;63344;46.980;28.882;2023-08-31T22:18:27;100380.28;;;22.27;58.81
71857;BME280;63344;46.980;28.882;2023-08-31T22:21:44;100390.09;;;22.28;59.22
71857;BME280;63344;46.980;28.882;2023-08-31T22:24:53;100387.06;;;22.21;59.55
71857;BME280;63344;46.980;28.882;2023-08-31T22:28:15;100398.16;;;22.18;59.94
71857;BME280;63344;46.980;28.882;2023-08-31T22:31:26;100409.69;;;22.11;59.87
71857;BME280;63344;46.980;28.882;2023-08-31T22:34:06;100400.69;;;22.00;60.12
71857;BME280;63344;46.980;28.882;2023-08-31T22:36:53;100403.56;;;21.99;60.36
71857;BME280;63344;46.980;28.882;2023-08-31T22:39:31;100401.84;;;21.98;60.27
71857;BME280;63344;46.980;28.882;2023-08-31T22:42:20;100398.69;;;21.93;61.05
71857;BME280;63344;46.980;28.882;2023-08-31T22:44:57;100404.09;;;21.93;61.01
71857;BME280;63344;46.980;28.882;2023-08-31T22:47:39;100403.53;;;21.89;61.31
71857;BME280;63344;46.980;28.882;2023-08-31T22:50:23;100395.56;;;21.87;61.32
71857;BME280;63344;46.980;28.882;2023-08-31T22:52:55;100389.44;;;21.85;61.90
71857;BME280;63344;46.980;28.882;2023-08-31T22:55:31;100384.88;;;21.86;61.98
71857;BME280;63344;46.980;28.882;2023-08-31T22:58:10;100382.13;;;21.76;61.88
71857;BME280;63344;46.980;28.882;2023-08-31T23:00:45;100388.72;;;21.83;62.25
71857;BME280;63344;46.980;28.882;2023-08-31T23:03:40;100383.31;;;21.83;62.87
71857;BME280;63344;46.980;28.882;2023-08-31T23:06:17;100373.63;;;21.81;63.17
71857;BME280;63344;46.980;28.882;2023-08-31T23:09:32;100370.19;;;21.88;62.89
71857;BME280;63344;46.980;28.882;2023-08-31T23:12:27;100367.38;;;21.90;62.83
71857;BME280;63344;46.980;28.882;2023-08-31T23:15:21;100370.19;;;21.88;62.74
71857;BME280;63344;46.980;28.882;2023-08-31T23:18:02;100370.19;;;21.88;62.25
71857;BME280;63344;46.980;28.882;2023-08-31T23:20:51;100371.94;;;21.90;62.26
71857;BME280;63344;46.980;28.882;2023-08-31T23:23:42;100371.94;;;21.90;62.74
71857;BME280;63344;46.980;28.882;2023-08-31T23:26:32;100375.06;;;21.85;62.69
71857;BME280;63344;46.980;28.882;2023-08-31T23:29:29;100380.72;;;21.82;62.79
71857;BME280;63344;46.980;28.882;2023-08-31T23:32:33;100387.00;;;21.82;62.42
71857;BME280;63344;46.980;28.882;2023-08-31T23:35:14;100386.72;;;21.85;62.13
71857;BME280;63344;46.980;28.882;2023-08-31T23:37:53;100386.72;;;21.85;61.99
71857;BME280;63344;46.980;28.882;2023-08-31T23:40:34;100385.16;;;21.83;61.77
71857;BME280;63344;46.980;28.882;2023-08-31T23:43:08;100391.28;;;21.85;62.05
71857;BME280;63344;46.980;28.882;2023-08-31T23:45:45;100383.56;;;21.80;61.70
71857;BME280;63344;46.980;28.882;2023-08-31T23:48:22;100388.00;;;21.81;61.77
71857;BME280;63344;46.980;28.882;2023-08-31T23:51:29;100368.75;;;21.65;61.83
71857;BME280;63344;46.980;28.882;2023-08-31T23:53:56;100389.25;;;21.77;61.97
71857;BME280;63344;46.980;28.882;2023-08-31T23:56:40;100391.38;;;21.74;62.05
71857;BME280;63344;46.980;28.882;2023-08-31T23:59:20;100386.41;;;21.69;62.09
